sensor_id;sensor_type;location;lat;lon;timestamp;P1;durP1;ratioP1;P2;durP2;ratioP2
55469;SDS011;41334;47.872;16.384;2023-03-08T00:02:00;8.00;;;3.58;;
55469;SDS011;41334;47.872;16.384;2023-03-08T00:05:01;1.98;;;1.77;;
55469;SDS011;41334;47.872;16.384;2023-03-08T00:08:04;7.97;;;4.18;;
55469;SDS011;41334;47.872;16.384;2023-03-08T00:11:09;7.15;;;4.25;;
55469;SDS011;41334;47.872;16.384;2023-03-08T00:14:11;12.85;;;4.25;;
55469;SDS011;41334;47.872;16.384;2023-03-08T00:17:13;7.05;;;3.60;;
55469;SDS011;41334;47.872;16.384;2023-03-08T00:20:14;7.70;;;4.40;;
55469;SDS011;41334;47.872;16.384;2023-03-08T00:23:16;10.48;;;3.80;;
55469;SDS011;41334;47.872;16.384;2023-03-08T00:26:17;8.45;;;4.68;;
55469;SDS011;41334;47.872;16.384;2023-03-08T00:29:19;1.50;;;1.10;;
55469;SDS011;41334;47.872;16.384;2023-03-08T00:32:21;12.52;;;4.50;;
55469;SDS011;41334;47.872;16.384;2023-03-08T00:35:23;8.00;;;3.78;;
55469;SDS011;41334;47.872;16.384;2023-03-08T00:38:25;10.40;;;3.83;;
55469;SDS011;41334;47.872;16.384;2023-03-08T00:41:27;10.02;;;3.28;;
55469;SDS011;41334;47.872;16.384;2023-03-08T00:44:29;10.95;;;3.85;;
55469;SDS011;41334;47.872;16.384;2023-03-08T00:47:30;4.65;;;1.83;;
55469;SDS011;41334;47.872;16.384;2023-03-08T00:50:32;5.82;;;3.38;;
55469;SDS011;41334;47.872;16.384;2023-03-08T00:53:34;0.77;;;0.60;;
55469;SDS011;41334;47.872;16.384;2023-03-08T00:56:36;9.45;;;4.05;;
55469;SDS011;41334;47.872;16.384;2023-03-08T00:59:38;9.25;;;3.88;;
55469;SDS011;41334;47.872;16.384;2023-03-08T01:02:39;4.95;;;2.55;;
55469;SDS011;41334;47.872;16.384;2023-03-08T01:05:42;8.90;;;4.38;;
55469;SDS011;41334;47.872;16.384;2023-03-08T01:08:46;10.63;;;3.63;;
55469;SDS011;41334;47.872;16.384;2023-03-08T01:11:47;5.72;;;2.85;;
55469;SDS011;41334;47.872;16.384;2023-03-08T01:14:52;13.25;;;6.07;;
55469;SDS011;41334;47.872;16.384;2023-03-08T01:17:54;4.95;;;2.03;;
55469;SDS011;41334;47.872;16.384;2023-03-08T01:21:00;4.50;;;2.47;;
55469;SDS011;41334;47.872;16.384;2023-03-08T01:24:02;4.63;;;2.72;;
55469;SDS011;41334;47.872;16.384;2023-03-08T01:27:04;8.65;;;3.45;;
55469;SDS011;41334;47.872;16.384;2023-03-08T01:30:06;12.77;;;5.40;;
55469;SDS011;41334;47.872;16.384;2023-03-08T01:33:08;5.55;;;3.00;;
55469;SDS011;41334;47.872;16.384;2023-03-08T01:36:11;2.85;;;1.77;;
55469;SDS011;41334;47.872;16.384;2023-03-08T01:39:12;8.50;;;3.60;;
55469;SDS011;41334;47.872;16.384;2023-03-08T01:42:14;7.00;;;4.03;;
55469;SDS011;41334;47.872;16.384;2023-03-08T01:48:40;7.28;;;4.00;;
55469;SDS011;41334;47.872;16.384;2023-03-08T01:54:52;8.27;;;4.28;;
55469;SDS011;41334;47.872;16.384;2023-03-08T01:57:55;5.63;;;3.13;;
55469;SDS011;41334;47.872;16.384;2023-03-08T02:00:57;9.75;;;3.92;;
55469;SDS011;41334;47.872;16.384;2023-03-08T02:04:00;11.07;;;4.18;;
55469;SDS011;41334;47.872;16.384;2023-03-08T02:07:02;4.80;;;2.13;;
55469;SDS011;41334;47.872;16.384;2023-03-08T02:10:04;8.43;;;3.40;;
55469;SDS011;41334;47.872;16.384;2023-03-08T02:13:06;10.15;;;4.30;;
55469;SDS011;41334;47.872;16.384;2023-03-08T02:16:12;12.10;;;3.75;;
55469;SDS011;41334;47.872;16.384;2023-03-08T02:19:22;10.38;;;3.03;;
55469;SDS011;41334;47.872;16.384;2023-03-08T02:22:25;14.52;;;4.80;;
55469;SDS011;41334;47.872;16.384;2023-03-08T02:25:27;8.82;;;4.28;;
55469;SDS011;41334;47.872;16.384;2023-03-08T02:28:29;6.03;;;2.60;;
55469;SDS011;41334;47.872;16.384;2023-03-08T02:31:31;8.57;;;2.65;;
55469;SDS011;41334;47.872;16.384;2023-03-08T02:34:32;8.40;;;4.22;;
55469;SDS011;41334;47.872;16.384;2023-03-08T02:37:34;10.10;;;5.03;;
55469;SDS011;41334;47.872;16.384;2023-03-08T02:40:37;9.20;;;4.15;;
55469;SDS011;41334;47.872;16.384;2023-03-08T02:43:39;6.18;;;3.13;;
55469;SDS011;41334;47.872;16.384;2023-03-08T02:46:40;8.15;;;4.85;;
55469;SDS011;41334;47.872;16.384;2023-03-08T02:49:42;5.63;;;3.15;;
55469;SDS011;41334;47.872;16.384;2023-03-08T02:52:44;4.82;;;2.50;;
55469;SDS011;41334;47.872;16.384;2023-03-08T02:55:46;8.82;;;3.92;;
55469;SDS011;41334;47.872;16.384;2023-03-08T02:58:47;7.03;;;2.55;;
55469;SDS011;41334;47.872;16.384;2023-03-08T03:01:49;2.67;;;1.65;;
55469;SDS011;41334;47.872;16.384;2023-03-08T03:04:50;5.30;;;2.47;;
55469;SDS011;41334;47.872;16.384;2023-03-08T03:07:52;1.77;;;0.52;;
55469;SDS011;41334;47.872;16.384;2023-03-08T03:10:55;2.38;;;1.42;;
55469;SDS011;41334;47.872;16.384;2023-03-08T03:13:58;4.70;;;1.60;;
55469;SDS011;41334;47.872;16.384;2023-03-08T03:17:05;5.47;;;2.45;;
55469;SDS011;41334;47.872;16.384;2023-03-08T03:20:07;4.68;;;1.55;;
55469;SDS011;41334;47.872;16.384;2023-03-08T03:23:12;4.50;;;2.67;;
55469;SDS011;41334;47.872;16.384;2023-03-08T03:26:21;2.85;;;1.48;;
55469;SDS011;41334;47.872;16.384;2023-03-08T03:29:26;2.50;;;1.13;;
55469;SDS011;41334;47.872;16.384;2023-03-08T03:32:38;6.93;;;1.90;;
55469;SDS011;41334;47.872;16.384;2023-03-08T03:35:41;2.45;;;1.25;;
55469;SDS011;41334;47.872;16.384;2023-03-08T03:38:44;1.13;;;0.75;;
55469;SDS011;41334;47.872;16.384;2023-03-08T03:41:46;4.00;;;1.80;;
55469;SDS011;41334;47.872;16.384;2023-03-08T03:44:48;1.08;;;0.57;;
55469;SDS011;41334;47.872;16.384;2023-03-08T03:47:53;2.25;;;1.20;;
55469;SDS011;41334;47.872;16.384;2023-03-08T03:50:56;3.13;;;1.35;;
55469;SDS011;41334;47.872;16.384;2023-03-08T03:53:59;5.65;;;2.05;;
55469;SDS011;41334;47.872;16.384;2023-03-08T03:57:02;6.10;;;3.22;;
55469;SDS011;41334;47.872;16.384;2023-03-08T04:03:21;5.78;;;0.95;;
55469;SDS011;41334;47.872;16.384;2023-03-08T04:06:25;2.40;;;1.55;;
55469;SDS011;41334;47.872;16.384;2023-03-08T04:09:28;4.78;;;1.73;;
55469;SDS011;41334;47.872;16.384;2023-03-08T04:12:39;1.27;;;1.20;;
55469;SDS011;41334;47.872;16.384;2023-03-08T04:15:41;2.90;;;1.48;;
55469;SDS011;41334;47.872;16.384;2023-03-08T04:18:46;4.65;;;2.45;;
55469;SDS011;41334;47.872;16.384;2023-03-08T04:21:48;3.47;;;1.70;;
55469;SDS011;41334;47.872;16.384;2023-03-08T04:24:52;2.10;;;1.02;;
55469;SDS011;41334;47.872;16.384;2023-03-08T04:28:05;2.47;;;1.27;;
55469;SDS011;41334;47.872;16.384;2023-03-08T04:31:26;1.23;;;0.52;;
55469;SDS011;41334;47.872;16.384;2023-03-08T04:34:32;4.28;;;2.05;;
55469;SDS011;41334;47.872;16.384;2023-03-08T04:37:34;0.98;;;0.63;;
55469;SDS011;41334;47.872;16.384;2023-03-08T04:40:51;6.25;;;2.42;;
55469;SDS011;41334;47.872;16.384;2023-03-08T04:44:21;3.70;;;1.55;;
55469;SDS011;41334;47.872;16.384;2023-03-08T04:47:25;5.43;;;2.67;;
55469;SDS011;41334;47.872;16.384;2023-03-08T04:50:27;0.08;;;0.03;;
55469;SDS011;41334;47.872;16.384;2023-03-08T04:53:31;1.25;;;0.85;;
55469;SDS011;41334;47.872;16.384;2023-03-08T04:56:33;1.42;;;0.77;;
55469;SDS011;41334;47.872;16.384;2023-03-08T04:59:35;2.78;;;1.48;;
55469;SDS011;41334;47.872;16.384;2023-03-08T05:02:39;1.75;;;0.55;;
55469;SDS011;41334;47.872;16.384;2023-03-08T05:08:48;1.95;;;0.28;;
55469;SDS011;41334;47.872;16.384;2023-03-08T05:11:51;2.90;;;0.70;;
55469;SDS011;41334;47.872;16.384;2023-03-08T05:14:54;1.02;;;0.75;;
55469;SDS011;41334;47.872;16.384;2023-03-08T05:17:58;0.63;;;0.13;;
55469;SDS011;41334;47.872;16.384;2023-03-08T05:21:02;3.30;;;1.38;;
55469;SDS011;41334;47.872;16.384;2023-03-08T05:24:05;3.13;;;1.52;;
55469;SDS011;41334;47.872;16.384;2023-03-08T05:27:10;2.17;;;0.65;;
55469;SDS011;41334;47.872;16.384;2023-03-08T05:30:12;3.58;;;1.55;;
55469;SDS011;41334;47.872;16.384;2023-03-08T05:33:15;2.90;;;1.35;;
55469;SDS011;41334;47.872;16.384;2023-03-08T05:36:17;1.17;;;0.85;;
55469;SDS011;41334;47.872;16.384;2023-03-08T05:39:21;1.08;;;0.60;;
55469;SDS011;41334;47.872;16.384;2023-03-08T05:42:37;3.35;;;1.88;;
55469;SDS011;41334;47.872;16.384;2023-03-08T05:45:39;12.25;;;1.75;;
55469;SDS011;41334;47.872;16.384;2023-03-08T05:48:41;1.42;;;0.85;;
55469;SDS011;41334;47.872;16.384;2023-03-08T05:51:43;1.55;;;1.02;;
55469;SDS011;41334;47.872;16.384;2023-03-08T05:54:45;0.70;;;0.52;;
55469;SDS011;41334;47.872;16.384;2023-03-08T05:57:51;2.25;;;1.20;;
55469;SDS011;41334;47.872;16.384;2023-03-08T06:00:54;3.00;;;0.75;;
55469;SDS011;41334;47.872;16.384;2023-03-08T06:03:57;1.67;;;0.82;;
55469;SDS011;41334;47.872;16.384;2023-03-08T06:07:03;1.50;;;0.22;;
55469;SDS011;41334;47.872;16.384;2023-03-08T06:10:15;1.08;;;0.45;;
55469;SDS011;41334;47.872;16.384;2023-03-08T06:13:17;2.83;;;1.70;;
55469;SDS011;41334;47.872;16.384;2023-03-08T06:16:19;2.75;;;1.27;;
55469;SDS011;41334;47.872;16.384;2023-03-08T06:19:22;2.72;;;0.75;;
55469;SDS011;41334;47.872;16.384;2023-03-08T06:22:26;6.45;;;3.30;;
55469;SDS011;41334;47.872;16.384;2023-03-08T06:25:29;6.03;;;2.55;;
55469;SDS011;41334;47.872;16.384;2023-03-08T06:28:32;4.03;;;2.10;;
55469;SDS011;41334;47.872;16.384;2023-03-08T06:31:35;6.97;;;2.47;;
55469;SDS011;41334;47.872;16.384;2023-03-08T06:34:40;5.78;;;3.22;;
55469;SDS011;41334;47.872;16.384;2023-03-08T06:37:41;4.60;;;1.67;;
55469;SDS011;41334;47.872;16.384;2023-03-08T06:40:43;5.15;;;1.20;;
55469;SDS011;41334;47.872;16.384;2023-03-08T06:43:45;9.27;;;2.45;;
55469;SDS011;41334;47.872;16.384;2023-03-08T06:46:47;4.38;;;1.60;;
55469;SDS011;41334;47.872;16.384;2023-03-08T06:49:49;8.75;;;2.67;;
55469;SDS011;41334;47.872;16.384;2023-03-08T06:52:51;1.65;;;1.13;;
55469;SDS011;41334;47.872;16.384;2023-03-08T06:56:05;3.35;;;2.08;;
55469;SDS011;41334;47.872;16.384;2023-03-08T06:59:10;3.60;;;1.55;;
55469;SDS011;41334;47.872;16.384;2023-03-08T07:02:11;3.63;;;1.83;;
55469;SDS011;41334;47.872;16.384;2023-03-08T07:05:13;5.22;;;2.97;;
55469;SDS011;41334;47.872;16.384;2023-03-08T07:08:16;5.50;;;2.17;;
55469;SDS011;41334;47.872;16.384;2023-03-08T07:11:17;4.03;;;2.28;;
55469;SDS011;41334;47.872;16.384;2023-03-08T07:14:19;5.00;;;2.35;;
55469;SDS011;41334;47.872;16.384;2023-03-08T07:17:21;9.63;;;3.22;;
55469;SDS011;41334;47.872;16.384;2023-03-08T07:20:23;3.83;;;2.03;;
55469;SDS011;41334;47.872;16.384;2023-03-08T07:23:25;6.13;;;3.55;;
55469;SDS011;41334;47.872;16.384;2023-03-08T07:26:27;9.25;;;2.60;;
55469;SDS011;41334;47.872;16.384;2023-03-08T07:29:29;5.13;;;2.42;;
55469;SDS011;41334;47.872;16.384;2023-03-08T07:32:30;7.70;;;2.17;;
55469;SDS011;41334;47.872;16.384;2023-03-08T07:35:32;8.35;;;2.67;;
55469;SDS011;41334;47.872;16.384;2023-03-08T07:38:34;7.65;;;2.45;;
55469;SDS011;41334;47.872;16.384;2023-03-08T07:41:35;8.50;;;3.30;;
55469;SDS011;41334;47.872;16.384;2023-03-08T07:44:37;4.05;;;2.03;;
55469;SDS011;41334;47.872;16.384;2023-03-08T07:47:39;5.18;;;1.50;;
55469;SDS011;41334;47.872;16.384;2023-03-08T07:50:41;5.18;;;1.52;;
55469;SDS011;41334;47.872;16.384;2023-03-08T07:53:42;3.35;;;1.98;;
55469;SDS011;41334;47.872;16.384;2023-03-08T07:56:44;1.63;;;0.65;;
55469;SDS011;41334;47.872;16.384;2023-03-08T07:59:46;5.15;;;2.33;;
55469;SDS011;41334;47.872;16.384;2023-03-08T08:02:47;3.25;;;1.52;;
55469;SDS011;41334;47.872;16.384;2023-03-08T08:05:49;7.75;;;2.67;;
55469;SDS011;41334;47.872;16.384;2023-03-08T08:08:51;4.30;;;2.45;;
55469;SDS011;41334;47.872;16.384;2023-03-08T08:11:53;2.67;;;1.50;;
55469;SDS011;41334;47.872;16.384;2023-03-08T08:14:54;8.43;;;2.53;;
55469;SDS011;41334;47.872;16.384;2023-03-08T08:17:56;6.05;;;1.65;;
55469;SDS011;41334;47.872;16.384;2023-03-08T08:20:59;3.33;;;1.80;;
55469;SDS011;41334;47.872;16.384;2023-03-08T08:24:00;5.10;;;2.13;;
55469;SDS011;41334;47.872;16.384;2023-03-08T08:27:02;8.20;;;2.90;;
55469;SDS011;41334;47.872;16.384;2023-03-08T08:30:04;5.75;;;2.05;;
55469;SDS011;41334;47.872;16.384;2023-03-08T08:33:06;8.52;;;2.55;;
55469;SDS011;41334;47.872;16.384;2023-03-08T08:36:09;7.00;;;3.40;;
55469;SDS011;41334;47.872;16.384;2023-03-08T08:39:11;5.43;;;2.22;;
55469;SDS011;41334;47.872;16.384;2023-03-08T08:42:12;5.55;;;2.40;;
55469;SDS011;41334;47.872;16.384;2023-03-08T08:45:14;6.25;;;2.78;;
55469;SDS011;41334;47.872;16.384;2023-03-08T08:48:16;6.25;;;3.15;;
55469;SDS011;41334;47.872;16.384;2023-03-08T08:51:18;5.28;;;2.53;;
55469;SDS011;41334;47.872;16.384;2023-03-08T08:54:19;6.32;;;2.90;;
55469;SDS011;41334;47.872;16.384;2023-03-08T08:57:21;5.95;;;2.95;;
55469;SDS011;41334;47.872;16.384;2023-03-08T09:00:23;4.18;;;2.22;;
55469;SDS011;41334;47.872;16.384;2023-03-08T09:03:24;5.13;;;1.65;;
55469;SDS011;41334;47.872;16.384;2023-03-08T09:06:26;8.25;;;3.13;;
55469;SDS011;41334;47.872;16.384;2023-03-08T09:09:28;5.57;;;2.75;;
55469;SDS011;41334;47.872;16.384;2023-03-08T09:12:30;5.63;;;2.10;;
55469;SDS011;41334;47.872;16.384;2023-03-08T09:15:33;11.63;;;3.97;;
55469;SDS011;41334;47.872;16.384;2023-03-08T09:18:34;7.25;;;2.92;;
55469;SDS011;41334;47.872;16.384;2023-03-08T09:21:36;3.40;;;1.67;;
55469;SDS011;41334;47.872;16.384;2023-03-08T09:24:38;4.22;;;2.20;;
55469;SDS011;41334;47.872;16.384;2023-03-08T09:27:39;8.05;;;3.88;;
55469;SDS011;41334;47.872;16.384;2023-03-08T09:30:42;7.38;;;3.38;;
55469;SDS011;41334;47.872;16.384;2023-03-08T09:33:45;5.85;;;3.10;;
55469;SDS011;41334;47.872;16.384;2023-03-08T09:36:47;9.88;;;3.15;;
55469;SDS011;41334;47.872;16.384;2023-03-08T09:39:51;11.45;;;3.78;;
55469;SDS011;41334;47.872;16.384;2023-03-08T09:42:54;9.30;;;3.67;;
55469;SDS011;41334;47.872;16.384;2023-03-08T09:45:58;9.50;;;3.58;;
55469;SDS011;41334;47.872;16.384;2023-03-08T09:49:00;9.32;;;4.40;;
55469;SDS011;41334;47.872;16.384;2023-03-08T09:52:07;0.95;;;0.60;;
55469;SDS011;41334;47.872;16.384;2023-03-08T09:55:16;8.25;;;4.25;;
55469;SDS011;41334;47.872;16.384;2023-03-08T09:58:34;6.03;;;3.25;;
55469;SDS011;41334;47.872;16.384;2023-03-08T10:08:17;5.63;;;2.40;;
55469;SDS011;41334;47.872;16.384;2023-03-08T10:14:34;14.52;;;5.15;;
55469;SDS011;41334;47.872;16.384;2023-03-08T10:17:43;3.33;;;0.70;;
55469;SDS011;41334;47.872;16.384;2023-03-08T10:20:46;1.83;;;0.88;;
55469;SDS011;41334;47.872;16.384;2023-03-08T10:30:19;9.07;;;4.63;;
55469;SDS011;41334;47.872;16.384;2023-03-08T10:33:22;7.28;;;3.00;;
55469;SDS011;41334;47.872;16.384;2023-03-08T10:36:26;2.20;;;0.38;;
55469;SDS011;41334;47.872;16.384;2023-03-08T10:39:28;6.82;;;2.63;;
55469;SDS011;41334;47.872;16.384;2023-03-08T10:42:30;11.15;;;4.38;;
55469;SDS011;41334;47.872;16.384;2023-03-08T10:45:32;11.25;;;4.15;;
55469;SDS011;41334;47.872;16.384;2023-03-08T10:48:34;6.32;;;2.03;;
55469;SDS011;41334;47.872;16.384;2023-03-08T10:51:36;3.28;;;1.48;;
55469;SDS011;41334;47.872;16.384;2023-03-08T10:54:38;6.15;;;3.17;;
55469;SDS011;41334;47.872;16.384;2023-03-08T10:57:40;8.52;;;4.10;;
55469;SDS011;41334;47.872;16.384;2023-03-08T11:00:43;6.32;;;3.47;;
55469;SDS011;41334;47.872;16.384;2023-03-08T11:03:44;15.63;;;4.57;;
55469;SDS011;41334;47.872;16.384;2023-03-08T11:06:46;5.25;;;2.97;;
55469;SDS011;41334;47.872;16.384;2023-03-08T11:09:48;2.17;;;0.95;;
55469;SDS011;41334;47.872;16.384;2023-03-08T11:13:05;10.63;;;4.38;;
55469;SDS011;41334;47.872;16.384;2023-03-08T11:16:50;4.75;;;2.38;;
55469;SDS011;41334;47.872;16.384;2023-03-08T11:23:14;10.95;;;4.50;;
55469;SDS011;41334;47.872;16.384;2023-03-08T11:29:28;4.40;;;2.22;;
55469;SDS011;41334;47.872;16.384;2023-03-08T11:32:37;5.90;;;2.00;;
55469;SDS011;41334;47.872;16.384;2023-03-08T11:42:58;3.25;;;1.88;;
55469;SDS011;41334;47.872;16.384;2023-03-08T11:52:16;3.45;;;1.42;;
55469;SDS011;41334;47.872;16.384;2023-03-08T12:01:34;4.72;;;2.22;;
55469;SDS011;41334;47.872;16.384;2023-03-08T12:04:41;8.13;;;4.05;;
55469;SDS011;41334;47.872;16.384;2023-03-08T12:07:56;4.95;;;2.25;;
55469;SDS011;41334;47.872;16.384;2023-03-08T12:11:04;6.13;;;3.45;;
55469;SDS011;41334;47.872;16.384;2023-03-08T12:14:13;3.72;;;1.80;;
55469;SDS011;41334;47.872;16.384;2023-03-08T12:17:18;4.10;;;1.92;;
55469;SDS011;41334;47.872;16.384;2023-03-08T12:20:21;7.72;;;4.45;;
55469;SDS011;41334;47.872;16.384;2023-03-08T12:26:27;13.70;;;4.38;;
55469;SDS011;41334;47.872;16.384;2023-03-08T12:32:51;10.35;;;4.03;;
55469;SDS011;41334;47.872;16.384;2023-03-08T12:35:57;6.20;;;3.55;;
55469;SDS011;41334;47.872;16.384;2023-03-08T12:39:04;11.35;;;5.25;;
55469;SDS011;41334;47.872;16.384;2023-03-08T12:48:26;11.85;;;5.15;;
55469;SDS011;41334;47.872;16.384;2023-03-08T12:51:30;2.63;;;1.52;;
55469;SDS011;41334;47.872;16.384;2023-03-08T12:54:33;1.88;;;0.82;;
55469;SDS011;41334;47.872;16.384;2023-03-08T12:57:39;10.30;;;5.63;;
55469;SDS011;41334;47.872;16.384;2023-03-08T13:00:46;2.58;;;1.17;;
55469;SDS011;41334;47.872;16.384;2023-03-08T13:03:57;9.70;;;4.55;;
55469;SDS011;41334;47.872;16.384;2023-03-08T13:07:17;3.10;;;2.33;;
55469;SDS011;41334;47.872;16.384;2023-03-08T13:10:21;5.65;;;2.55;;
55469;SDS011;41334;47.872;16.384;2023-03-08T13:16:43;4.15;;;2.70;;
55469;SDS011;41334;47.872;16.384;2023-03-08T13:19:45;12.98;;;6.15;;
55469;SDS011;41334;47.872;16.384;2023-03-08T13:26:15;12.32;;;4.07;;
55469;SDS011;41334;47.872;16.384;2023-03-08T13:29:19;11.20;;;4.28;;
55469;SDS011;41334;47.872;16.384;2023-03-08T13:32:21;4.32;;;2.10;;
55469;SDS011;41334;47.872;16.384;2023-03-08T13:35:24;8.50;;;4.10;;
55469;SDS011;41334;47.872;16.384;2023-03-08T13:38:32;6.65;;;3.42;;
55469;SDS011;41334;47.872;16.384;2023-03-08T13:41:37;10.70;;;4.45;;
55469;SDS011;41334;47.872;16.384;2023-03-08T13:44:39;9.82;;;4.78;;
55469;SDS011;41334;47.872;16.384;2023-03-08T13:47:41;12.45;;;5.80;;
55469;SDS011;41334;47.872;16.384;2023-03-08T13:50:45;7.22;;;4.05;;
55469;SDS011;41334;47.872;16.384;2023-03-08T13:53:47;14.93;;;3.92;;
55469;SDS011;41334;47.872;16.384;2023-03-08T13:56:51;9.88;;;4.63;;
55469;SDS011;41334;47.872;16.384;2023-03-08T13:59:57;8.25;;;4.28;;
55469;SDS011;41334;47.872;16.384;2023-03-08T14:03:00;8.68;;;4.75;;
55469;SDS011;41334;47.872;16.384;2023-03-08T14:06:02;8.90;;;4.53;;
55469;SDS011;41334;47.872;16.384;2023-03-08T14:09:04;3.15;;;1.67;;
55469;SDS011;41334;47.872;16.384;2023-03-08T14:12:06;6.97;;;3.17;;
55469;SDS011;41334;47.872;16.384;2023-03-08T14:15:15;8.60;;;4.20;;
55469;SDS011;41334;47.872;16.384;2023-03-08T14:18:19;2.58;;;1.52;;
55469;SDS011;41334;47.872;16.384;2023-03-08T14:21:23;14.23;;;4.85;;
55469;SDS011;41334;47.872;16.384;2023-03-08T14:24:32;6.10;;;3.47;;
55469;SDS011;41334;47.872;16.384;2023-03-08T14:27:39;9.77;;;5.03;;
55469;SDS011;41334;47.872;16.384;2023-03-08T14:30:45;6.30;;;2.97;;
55469;SDS011;41334;47.872;16.384;2023-03-08T14:34:01;5.78;;;3.20;;
55469;SDS011;41334;47.872;16.384;2023-03-08T14:43:19;12.43;;;5.03;;
55469;SDS011;41334;47.872;16.384;2023-03-08T14:46:22;4.07;;;2.08;;
55469;SDS011;41334;47.872;16.384;2023-03-08T14:49:25;9.57;;;5.07;;
55469;SDS011;41334;47.872;16.384;2023-03-08T14:52:28;7.85;;;3.97;;
55469;SDS011;41334;47.872;16.384;2023-03-08T14:55:31;6.05;;;2.88;;
55469;SDS011;41334;47.872;16.384;2023-03-08T14:58:36;2.35;;;1.15;;
55469;SDS011;41334;47.872;16.384;2023-03-08T15:01:38;6.57;;;3.05;;
55469;SDS011;41334;47.872;16.384;2023-03-08T15:04:41;8.65;;;4.10;;
55469;SDS011;41334;47.872;16.384;2023-03-08T15:07:43;5.40;;;2.80;;
55469;SDS011;41334;47.872;16.384;2023-03-08T15:10:45;10.85;;;4.72;;
55469;SDS011;41334;47.872;16.384;2023-03-08T15:13:48;3.10;;;1.50;;
55469;SDS011;41334;47.872;16.384;2023-03-08T15:16:49;9.25;;;4.72;;
55469;SDS011;41334;47.872;16.384;2023-03-08T15:19:51;2.00;;;0.93;;
55469;SDS011;41334;47.872;16.384;2023-03-08T15:22:54;8.95;;;4.00;;
55469;SDS011;41334;47.872;16.384;2023-03-08T15:30:00;9.32;;;3.40;;
55469;SDS011;41334;47.872;16.384;2023-03-08T15:33:01;6.55;;;3.45;;
55469;SDS011;41334;47.872;16.384;2023-03-08T15:36:03;3.67;;;2.30;;
55469;SDS011;41334;47.872;16.384;2023-03-08T15:39:08;8.43;;;4.75;;
55469;SDS011;41334;47.872;16.384;2023-03-08T15:42:10;10.35;;;4.63;;
55469;SDS011;41334;47.872;16.384;2023-03-08T15:45:13;4.30;;;2.83;;
55469;SDS011;41334;47.872;16.384;2023-03-08T15:48:15;7.15;;;4.20;;
55469;SDS011;41334;47.872;16.384;2023-03-08T15:51:18;9.18;;;4.28;;
55469;SDS011;41334;47.872;16.384;2023-03-08T15:54:20;9.20;;;4.15;;
55469;SDS011;41334;47.872;16.384;2023-03-08T15:57:21;8.20;;;4.32;;
55469;SDS011;41334;47.872;16.384;2023-03-08T16:00:23;5.40;;;3.13;;
55469;SDS011;41334;47.872;16.384;2023-03-08T16:03:25;8.93;;;4.18;;
55469;SDS011;41334;47.872;16.384;2023-03-08T16:06:31;8.50;;;4.63;;
55469;SDS011;41334;47.872;16.384;2023-03-08T16:09:33;11.70;;;4.43;;
55469;SDS011;41334;47.872;16.384;2023-03-08T16:12:35;10.68;;;4.45;;
55469;SDS011;41334;47.872;16.384;2023-03-08T16:15:39;8.45;;;4.60;;
55469;SDS011;41334;47.872;16.384;2023-03-08T16:18:41;7.68;;;4.22;;
55469;SDS011;41334;47.872;16.384;2023-03-08T16:21:45;8.80;;;4.70;;
55469;SDS011;41334;47.872;16.384;2023-03-08T16:24:47;7.53;;;3.38;;
55469;SDS011;41334;47.872;16.384;2023-03-08T16:27:48;10.15;;;4.95;;
55469;SDS011;41334;47.872;16.384;2023-03-08T16:30:50;9.20;;;4.68;;
55469;SDS011;41334;47.872;16.384;2023-03-08T16:33:52;8.60;;;3.75;;
55469;SDS011;41334;47.872;16.384;2023-03-08T16:37:00;9.98;;;4.13;;
55469;SDS011;41334;47.872;16.384;2023-03-08T16:40:02;8.77;;;4.38;;
55469;SDS011;41334;47.872;16.384;2023-03-08T16:43:05;11.15;;;5.20;;
55469;SDS011;41334;47.872;16.384;2023-03-08T16:46:07;10.50;;;5.07;;
55469;SDS011;41334;47.872;16.384;2023-03-08T16:49:15;9.75;;;5.35;;
55469;SDS011;41334;47.872;16.384;2023-03-08T16:52:17;8.27;;;3.80;;
55469;SDS011;41334;47.872;16.384;2023-03-08T16:55:19;11.82;;;4.03;;
55469;SDS011;41334;47.872;16.384;2023-03-08T16:58:21;9.48;;;3.83;;
55469;SDS011;41334;47.872;16.384;2023-03-08T17:01:22;7.93;;;4.22;;
55469;SDS011;41334;47.872;16.384;2023-03-08T17:04:24;8.38;;;4.38;;
55469;SDS011;41334;47.872;16.384;2023-03-08T17:07:26;10.20;;;4.32;;
55469;SDS011;41334;47.872;16.384;2023-03-08T17:10:28;9.65;;;4.82;;
55469;SDS011;41334;47.872;16.384;2023-03-08T17:13:30;10.88;;;6.30;;
55469;SDS011;41334;47.872;16.384;2023-03-08T17:16:32;18.00;;;9.23;;
55469;SDS011;41334;47.872;16.384;2023-03-08T17:19:36;22.30;;;11.13;;
55469;SDS011;41334;47.872;16.384;2023-03-08T17:22:41;17.90;;;8.35;;
55469;SDS011;41334;47.872;16.384;2023-03-08T17:25:43;17.42;;;7.38;;
55469;SDS011;41334;47.872;16.384;2023-03-08T17:28:45;12.63;;;5.38;;
55469;SDS011;41334;47.872;16.384;2023-03-08T17:31:46;6.47;;;3.45;;
55469;SDS011;41334;47.872;16.384;2023-03-08T17:34:48;11.38;;;6.03;;
55469;SDS011;41334;47.872;16.384;2023-03-08T17:37:50;11.07;;;5.40;;
55469;SDS011;41334;47.872;16.384;2023-03-08T17:40:52;10.73;;;5.25;;
55469;SDS011;41334;47.872;16.384;2023-03-08T17:43:54;10.40;;;5.38;;
55469;SDS011;41334;47.872;16.384;2023-03-08T17:46:55;11.40;;;5.63;;
55469;SDS011;41334;47.872;16.384;2023-03-08T17:49:57;11.82;;;6.65;;
55469;SDS011;41334;47.872;16.384;2023-03-08T17:52:59;11.70;;;5.75;;
55469;SDS011;41334;47.872;16.384;2023-03-08T17:56:03;15.65;;;7.35;;
55469;SDS011;41334;47.872;16.384;2023-03-08T17:59:05;15.55;;;8.23;;
55469;SDS011;41334;47.872;16.384;2023-03-08T18:02:08;12.30;;;6.50;;
55469;SDS011;41334;47.872;16.384;2023-03-08T18:05:10;10.88;;;5.30;;
55469;SDS011;41334;47.872;16.384;2023-03-08T18:08:12;13.75;;;6.63;;
55469;SDS011;41334;47.872;16.384;2023-03-08T18:11:14;13.02;;;6.90;;
55469;SDS011;41334;47.872;16.384;2023-03-08T18:14:15;16.45;;;6.93;;
55469;SDS011;41334;47.872;16.384;2023-03-08T18:17:18;13.10;;;6.10;;
55469;SDS011;41334;47.872;16.384;2023-03-08T18:20:20;12.45;;;4.53;;
55469;SDS011;41334;47.872;16.384;2023-03-08T18:23:23;9.80;;;4.03;;
55469;SDS011;41334;47.872;16.384;2023-03-08T18:26:25;7.95;;;3.90;;
55469;SDS011;41334;47.872;16.384;2023-03-08T18:29:27;7.10;;;3.40;;
55469;SDS011;41334;47.872;16.384;2023-03-08T18:32:29;7.03;;;3.47;;
55469;SDS011;41334;47.872;16.384;2023-03-08T18:35:30;8.88;;;3.55;;
55469;SDS011;41334;47.872;16.384;2023-03-08T18:38:33;6.38;;;3.38;;
55469;SDS011;41334;47.872;16.384;2023-03-08T18:41:35;9.68;;;4.45;;
55469;SDS011;41334;47.872;16.384;2023-03-08T18:44:37;9.05;;;4.07;;
55469;SDS011;41334;47.872;16.384;2023-03-08T18:47:39;7.47;;;3.42;;
55469;SDS011;41334;47.872;16.384;2023-03-08T18:50:41;5.75;;;3.15;;
55469;SDS011;41334;47.872;16.384;2023-03-08T18:53:45;6.78;;;2.92;;
55469;SDS011;41334;47.872;16.384;2023-03-08T18:56:47;7.97;;;3.92;;
55469;SDS011;41334;47.872;16.384;2023-03-08T18:59:54;6.90;;;4.15;;
55469;SDS011;41334;47.872;16.384;2023-03-08T19:02:55;11.75;;;4.68;;
55469;SDS011;41334;47.872;16.384;2023-03-08T19:05:59;8.20;;;4.72;;
55469;SDS011;41334;47.872;16.384;2023-03-08T19:09:12;7.00;;;3.33;;
55469;SDS011;41334;47.872;16.384;2023-03-08T19:12:13;7.15;;;3.25;;
55469;SDS011;41334;47.872;16.384;2023-03-08T19:15:16;4.90;;;3.08;;
55469;SDS011;41334;47.872;16.384;2023-03-08T19:18:17;9.77;;;3.33;;
55469;SDS011;41334;47.872;16.384;2023-03-08T19:21:20;8.43;;;3.28;;
55469;SDS011;41334;47.872;16.384;2023-03-08T19:24:22;6.38;;;3.25;;
55469;SDS011;41334;47.872;16.384;2023-03-08T19:27:24;9.13;;;3.63;;
55469;SDS011;41334;47.872;16.384;2023-03-08T19:30:25;7.65;;;3.55;;